sensor_id;sensor_type;location;lat;lon;timestamp;P1;durP1;ratioP1;P2;durP2;ratioP2
48873;SDS011;35220;46.204;5.220;2022-10-16T00:02:35;4.65;;;2.38;;
48873;SDS011;35220;46.204;5.220;2022-10-16T00:07:35;3.63;;;2.37;;
48873;SDS011;35220;46.204;5.220;2022-10-16T00:12:36;3.63;;;2.63;;
48873;SDS011;35220;46.204;5.220;2022-10-16T00:17:36;4.30;;;2.20;;
48873;SDS011;35220;46.204;5.220;2022-10-16T00:22:36;4.50;;;2.37;;
48873;SDS011;35220;46.204;5.220;2022-10-16T00:27:37;2.80;;;2.30;;
48873;SDS011;35220;46.204;5.220;2022-10-16T00:32:37;4.50;;;2.10;;
48873;SDS011;35220;46.204;5.220;2022-10-16T00:37:38;3.93;;;2.23;;
48873;SDS011;35220;46.204;5.220;2022-10-16T00:42:38;4.57;;;2.40;;
48873;SDS011;35220;46.204;5.220;2022-10-16T00:47:40;3.33;;;2.42;;
48873;SDS011;35220;46.204;5.220;2022-10-16T00:52:47;4.38;;;2.78;;
48873;SDS011;35220;46.204;5.220;2022-10-16T00:57:50;2.80;;;2.25;;
48873;SDS011;35220;46.204;5.220;2022-10-16T01:02:55;3.75;;;1.95;;
48873;SDS011;35220;46.204;5.220;2022-10-16T01:18:18;3.33;;;1.93;;
48873;SDS011;35220;46.204;5.220;2022-10-16T01:34:49;6.53;;;2.22;;
48873;SDS011;35220;46.204;5.220;2022-10-16T01:39:52;3.25;;;2.20;;
48873;SDS011;35220;46.204;5.220;2022-10-16T01:44:58;3.20;;;2.45;;
48873;SDS011;35220;46.204;5.220;2022-10-16T01:50:01;5.43;;;2.47;;
48873;SDS011;35220;46.204;5.220;2022-10-16T01:55:05;4.00;;;2.42;;
48873;SDS011;35220;46.204;5.220;2022-10-16T02:00:09;5.68;;;2.33;;
48873;SDS011;35220;46.204;5.220;2022-10-16T02:10:21;3.83;;;2.30;;
48873;SDS011;35220;46.204;5.220;2022-10-16T02:15:23;3.75;;;2.30;;
48873;SDS011;35220;46.204;5.220;2022-10-16T02:20:25;3.35;;;2.35;;
48873;SDS011;35220;46.204;5.220;2022-10-16T02:25:40;4.97;;;2.42;;
48873;SDS011;35220;46.204;5.220;2022-10-16T02:30:49;3.03;;;2.58;;
48873;SDS011;35220;46.204;5.220;2022-10-16T02:35:55;3.08;;;2.33;;
48873;SDS011;35220;46.204;5.220;2022-10-16T02:40:59;5.47;;;2.47;;
48873;SDS011;35220;46.204;5.220;2022-10-16T02:46:00;3.60;;;2.40;;
48873;SDS011;35220;46.204;5.220;2022-10-16T02:51:00;3.08;;;2.30;;
48873;SDS011;35220;46.204;5.220;2022-10-16T02:56:01;8.48;;;3.00;;
48873;SDS011;35220;46.204;5.220;2022-10-16T03:01:01;4.43;;;2.50;;
48873;SDS011;35220;46.204;5.220;2022-10-16T03:06:01;3.77;;;2.67;;
48873;SDS011;35220;46.204;5.220;2022-10-16T03:11:02;4.72;;;2.67;;
48873;SDS011;35220;46.204;5.220;2022-10-16T03:16:03;4.65;;;2.60;;
48873;SDS011;35220;46.204;5.220;2022-10-16T03:21:03;5.03;;;2.60;;
48873;SDS011;35220;46.204;5.220;2022-10-16T03:26:04;3.53;;;2.40;;
48873;SDS011;35220;46.204;5.220;2022-10-16T03:31:04;3.33;;;2.13;;
48873;SDS011;35220;46.204;5.220;2022-10-16T03:36:05;4.30;;;2.42;;
48873;SDS011;35220;46.204;5.220;2022-10-16T03:41:06;3.55;;;2.45;;
48873;SDS011;35220;46.204;5.220;2022-10-16T03:46:07;5.68;;;3.00;;
48873;SDS011;35220;46.204;5.220;2022-10-16T03:51:08;4.53;;;2.30;;
48873;SDS011;35220;46.204;5.220;2022-10-16T03:56:08;5.68;;;2.42;;
48873;SDS011;35220;46.204;5.220;2022-10-16T04:01:09;4.28;;;2.35;;
48873;SDS011;35220;46.204;5.220;2022-10-16T04:06:09;3.60;;;2.10;;
48873;SDS011;35220;46.204;5.220;2022-10-16T04:11:09;3.33;;;2.58;;
48873;SDS011;35220;46.204;5.220;2022-10-16T04:16:10;3.93;;;2.73;;
48873;SDS011;35220;46.204;5.220;2022-10-16T04:21:10;6.53;;;2.60;;
48873;SDS011;35220;46.204;5.220;2022-10-16T04:26:11;6.77;;;2.63;;
48873;SDS011;35220;46.204;5.220;2022-10-16T04:31:11;3.08;;;2.65;;
48873;SDS011;35220;46.204;5.220;2022-10-16T04:36:11;3.45;;;2.50;;
48873;SDS011;35220;46.204;5.220;2022-10-16T04:41:12;4.93;;;3.63;;
48873;SDS011;35220;46.204;5.220;2022-10-16T04:46:12;5.47;;;2.80;;
48873;SDS011;35220;46.204;5.220;2022-10-16T04:51:13;4.80;;;2.90;;
48873;SDS011;35220;46.204;5.220;2022-10-16T04:56:13;6.30;;;2.80;;
48873;SDS011;35220;46.204;5.220;2022-10-16T05:01:15;5.28;;;2.85;;
48873;SDS011;35220;46.204;5.220;2022-10-16T05:06:15;5.43;;;2.50;;
48873;SDS011;35220;46.204;5.220;2022-10-16T05:11:15;4.93;;;2.60;;
48873;SDS011;35220;46.204;5.220;2022-10-16T05:16:16;5.20;;;3.20;;
48873;SDS011;35220;46.204;5.220;2022-10-16T05:21:16;6.63;;;2.47;;
48873;SDS011;35220;46.204;5.220;2022-10-16T05:26:17;4.80;;;2.57;;
48873;SDS011;35220;46.204;5.220;2022-10-16T05:31:17;5.20;;;3.08;;
48873;SDS011;35220;46.204;5.220;2022-10-16T05:36:17;4.97;;;3.00;;
48873;SDS011;35220;46.204;5.220;2022-10-16T05:41:18;5.80;;;3.28;;
48873;SDS011;35220;46.204;5.220;2022-10-16T05:46:23;5.23;;;3.13;;
48873;SDS011;35220;46.204;5.220;2022-10-16T05:51:24;6.05;;;3.25;;
48873;SDS011;35220;46.204;5.220;2022-10-16T05:56:24;7.22;;;2.92;;
48873;SDS011;35220;46.204;5.220;2022-10-16T06:01:25;5.68;;;2.80;;
48873;SDS011;35220;46.204;5.220;2022-10-16T06:06:26;6.05;;;3.10;;
48873;SDS011;35220;46.204;5.220;2022-10-16T06:11:28;4.53;;;3.30;;
48873;SDS011;35220;46.204;5.220;2022-10-16T06:16:30;5.10;;;3.10;;
48873;SDS011;35220;46.204;5.220;2022-10-16T06:21:30;4.40;;;2.85;;
48873;SDS011;35220;46.204;5.220;2022-10-16T06:26:30;4.77;;;2.90;;
48873;SDS011;35220;46.204;5.220;2022-10-16T06:31:31;4.60;;;4.05;;
48873;SDS011;35220;46.204;5.220;2022-10-16T06:36:33;4.80;;;2.83;;
48873;SDS011;35220;46.204;5.220;2022-10-16T06:41:33;6.97;;;2.90;;
48873;SDS011;35220;46.204;5.220;2022-10-16T06:46:34;4.93;;;2.65;;
48873;SDS011;35220;46.204;5.220;2022-10-16T06:51:34;4.40;;;2.78;;
48873;SDS011;35220;46.204;5.220;2022-10-16T06:56:36;4.90;;;2.80;;
48873;SDS011;35220;46.204;5.220;2022-10-16T07:01:37;4.85;;;3.15;;
48873;SDS011;35220;46.204;5.220;2022-10-16T07:06:38;7.13;;;2.83;;
48873;SDS011;35220;46.204;5.220;2022-10-16T07:11:39;6.35;;;3.03;;
48873;SDS011;35220;46.204;5.220;2022-10-16T07:16:40;5.50;;;3.10;;
48873;SDS011;35220;46.204;5.220;2022-10-16T07:21:40;4.18;;;2.70;;
48873;SDS011;35220;46.204;5.220;2022-10-16T07:26:42;4.40;;;2.88;;
48873;SDS011;35220;46.204;5.220;2022-10-16T07:31:44;4.70;;;2.50;;
48873;SDS011;35220;46.204;5.220;2022-10-16T07:36:47;5.80;;;2.58;;
48873;SDS011;35220;46.204;5.220;2022-10-16T07:41:48;4.10;;;2.38;;
48873;SDS011;35220;46.204;5.220;2022-10-16T07:46:48;4.53;;;2.80;;
48873;SDS011;35220;46.204;5.220;2022-10-16T07:51:49;3.20;;;2.47;;
48873;SDS011;35220;46.204;5.220;2022-10-16T07:56:49;7.73;;;3.17;;
48873;SDS011;35220;46.204;5.220;2022-10-16T08:01:50;5.38;;;2.53;;
48873;SDS011;35220;46.204;5.220;2022-10-16T08:06:50;5.30;;;2.77;;
48873;SDS011;35220;46.204;5.220;2022-10-16T08:11:50;3.83;;;2.70;;
48873;SDS011;35220;46.204;5.220;2022-10-16T08:16:52;4.85;;;2.30;;
48873;SDS011;35220;46.204;5.220;2022-10-16T08:21:53;6.68;;;2.88;;
48873;SDS011;35220;46.204;5.220;2022-10-16T08:26:53;4.73;;;2.80;;
48873;SDS011;35220;46.204;5.220;2022-10-16T08:31:54;6.53;;;3.00;;
48873;SDS011;35220;46.204;5.220;2022-10-16T08:36:55;7.55;;;2.95;;
48873;SDS011;35220;46.204;5.220;2022-10-16T08:47:54;4.60;;;2.60;;
48873;SDS011;35220;46.204;5.220;2022-10-16T08:52:50;5.65;;;3.08;;
48873;SDS011;35220;46.204;5.220;2022-10-16T08:57:51;5.53;;;2.90;;
48873;SDS011;35220;46.204;5.220;2022-10-16T09:03:06;7.00;;;3.20;;
48873;SDS011;35220;46.204;5.220;2022-10-16T09:24:13;5.20;;;3.33;;
48873;SDS011;35220;46.204;5.220;2022-10-16T09:29:16;3.85;;;2.40;;
48873;SDS011;35220;46.204;5.220;2022-10-16T09:34:24;3.72;;;2.55;;
48873;SDS011;35220;46.204;5.220;2022-10-16T09:39:30;3.20;;;2.70;;
48873;SDS011;35220;46.204;5.220;2022-10-16T09:44:30;3.43;;;2.73;;
48873;SDS011;35220;46.204;5.220;2022-10-16T09:49:31;5.97;;;2.83;;
48873;SDS011;35220;46.204;5.220;2022-10-16T09:54:32;6.35;;;3.42;;
48873;SDS011;35220;46.204;5.220;2022-10-16T09:59:33;4.88;;;2.85;;
48873;SDS011;35220;46.204;5.220;2022-10-16T10:04:41;5.63;;;2.88;;
48873;SDS011;35220;46.204;5.220;2022-10-16T10:09:46;3.05;;;2.75;;
48873;SDS011;35220;46.204;5.220;2022-10-16T10:14:48;5.93;;;2.47;;
48873;SDS011;35220;46.204;5.220;2022-10-16T10:20:15;3.10;;;2.63;;
48873;SDS011;35220;46.204;5.220;2022-10-16T10:31:25;2.75;;;2.50;;
48873;SDS011;35220;46.204;5.220;2022-10-16T10:46:22;4.00;;;2.50;;
48873;SDS011;35220;46.204;5.220;2022-10-16T10:56:57;4.10;;;2.38;;
48873;SDS011;35220;46.204;5.220;2022-10-16T11:07:33;4.18;;;2.25;;
48873;SDS011;35220;46.204;5.220;2022-10-16T11:12:44;5.93;;;2.10;;
48873;SDS011;35220;46.204;5.220;2022-10-16T11:18:11;2.80;;;2.37;;
48873;SDS011;35220;46.204;5.220;2022-10-16T11:44:05;2.30;;;1.88;;
48873;SDS011;35220;46.204;5.220;2022-10-16T11:49:14;4.50;;;2.10;;
48873;SDS011;35220;46.204;5.220;2022-10-16T11:59:47;6.32;;;2.42;;
48873;SDS011;35220;46.204;5.220;2022-10-16T12:04:54;6.78;;;2.47;;
48873;SDS011;35220;46.204;5.220;2022-10-16T12:10:22;3.13;;;2.37;;
48873;SDS011;35220;46.204;5.220;2022-10-16T12:15:30;5.47;;;2.22;;
48873;SDS011;35220;46.204;5.220;2022-10-16T12:20:33;2.58;;;2.08;;
48873;SDS011;35220;46.204;5.220;2022-10-16T12:25:36;2.92;;;2.33;;
48873;SDS011;35220;46.204;5.220;2022-10-16T12:30:56;3.88;;;2.70;;
48873;SDS011;35220;46.204;5.220;2022-10-16T12:36:05;4.20;;;2.50;;
48873;SDS011;35220;46.204;5.220;2022-10-16T12:41:23;5.28;;;2.45;;
48873;SDS011;35220;46.204;5.220;2022-10-16T13:02:11;3.65;;;2.28;;
48873;SDS011;35220;46.204;5.220;2022-10-16T13:07:44;4.65;;;2.17;;
48873;SDS011;35220;46.204;5.220;2022-10-16T13:23:43;2.55;;;2.00;;
48873;SDS011;35220;46.204;5.220;2022-10-16T13:28:53;7.90;;;2.40;;
48873;SDS011;35220;46.204;5.220;2022-10-16T13:33:54;3.40;;;2.13;;
48873;SDS011;35220;46.204;5.220;2022-10-16T13:39:21;3.97;;;2.30;;
48873;SDS011;35220;46.204;5.220;2022-10-16T13:44:24;4.40;;;2.20;;
48873;SDS011;35220;46.204;5.220;2022-10-16T13:49:24;3.97;;;2.17;;
48873;SDS011;35220;46.204;5.220;2022-10-16T13:54:25;6.00;;;2.63;;
48873;SDS011;35220;46.204;5.220;2022-10-16T13:59:32;3.75;;;2.30;;
48873;SDS011;35220;46.204;5.220;2022-10-16T14:04:34;4.55;;;2.58;;
48873;SDS011;35220;46.204;5.220;2022-10-16T14:14:40;3.47;;;2.75;;
48873;SDS011;35220;46.204;5.220;2022-10-16T14:19:53;3.40;;;2.13;;
48873;SDS011;35220;46.204;5.220;2022-10-16T14:24:55;2.97;;;2.00;;
48873;SDS011;35220;46.204;5.220;2022-10-16T14:30:09;3.85;;;2.03;;
48873;SDS011;35220;46.204;5.220;2022-10-16T14:35:25;3.25;;;2.03;;
48873;SDS011;35220;46.204;5.220;2022-10-16T14:40:47;4.15;;;2.35;;
48873;SDS011;35220;46.204;5.220;2022-10-16T14:45:53;2.38;;;2.17;;
48873;SDS011;35220;46.204;5.220;2022-10-16T14:50:55;2.78;;;2.20;;
48873;SDS011;35220;46.204;5.220;2022-10-16T14:55:56;2.83;;;2.05;;
48873;SDS011;35220;46.204;5.220;2022-10-16T15:00:56;3.63;;;2.10;;
48873;SDS011;35220;46.204;5.220;2022-10-16T15:05:57;2.77;;;1.90;;
48873;SDS011;35220;46.204;5.220;2022-10-16T15:10:57;6.77;;;2.50;;
48873;SDS011;35220;46.204;5.220;2022-10-16T15:15:58;5.13;;;2.20;;
48873;SDS011;35220;46.204;5.220;2022-10-16T15:20:58;4.83;;;2.30;;
48873;SDS011;35220;46.204;5.220;2022-10-16T15:25:58;3.50;;;2.17;;
48873;SDS011;35220;46.204;5.220;2022-10-16T15:30:59;4.60;;;2.60;;
48873;SDS011;35220;46.204;5.220;2022-10-16T15:36:00;2.27;;;2.07;;
48873;SDS011;35220;46.204;5.220;2022-10-16T15:41:01;3.30;;;2.03;;
48873;SDS011;35220;46.204;5.220;2022-10-16T15:46:03;3.05;;;2.00;;
48873;SDS011;35220;46.204;5.220;2022-10-16T15:51:06;2.63;;;2.28;;
48873;SDS011;35220;46.204;5.220;2022-10-16T15:56:08;4.25;;;2.10;;
48873;SDS011;35220;46.204;5.220;2022-10-16T16:01:10;2.45;;;1.90;;
48873;SDS011;35220;46.204;5.220;2022-10-16T16:06:12;2.97;;;2.00;;
48873;SDS011;35220;46.204;5.220;2022-10-16T16:11:14;3.95;;;2.20;;
48873;SDS011;35220;46.204;5.220;2022-10-16T16:16:15;4.05;;;2.33;;
48873;SDS011;35220;46.204;5.220;2022-10-16T16:21:16;5.47;;;2.05;;
48873;SDS011;35220;46.204;5.220;2022-10-16T16:26:24;5.43;;;2.27;;
48873;SDS011;35220;46.204;5.220;2022-10-16T16:31:26;3.25;;;2.22;;
48873;SDS011;35220;46.204;5.220;2022-10-16T16:36:27;4.72;;;2.35;;
48873;SDS011;35220;46.204;5.220;2022-10-16T16:41:28;2.50;;;2.03;;
48873;SDS011;35220;46.204;5.220;2022-10-16T16:46:30;4.32;;;2.50;;
48873;SDS011;35220;46.204;5.220;2022-10-16T16:51:32;5.18;;;2.45;;
48873;SDS011;35220;46.204;5.220;2022-10-16T16:56:33;4.75;;;2.60;;
48873;SDS011;35220;46.204;5.220;2022-10-16T17:01:34;4.90;;;2.60;;
48873;SDS011;35220;46.204;5.220;2022-10-16T17:06:34;3.23;;;2.53;;
48873;SDS011;35220;46.204;5.220;2022-10-16T17:11:34;3.87;;;2.50;;
48873;SDS011;35220;46.204;5.220;2022-10-16T17:16:36;4.90;;;2.85;;
48873;SDS011;35220;46.204;5.220;2022-10-16T17:21:38;6.57;;;2.88;;
48873;SDS011;35220;46.204;5.220;2022-10-16T17:26:38;4.72;;;2.50;;
48873;SDS011;35220;46.204;5.220;2022-10-16T17:31:40;6.97;;;3.17;;
48873;SDS011;35220;46.204;5.220;2022-10-16T17:36:41;8.88;;;2.63;;
48873;SDS011;35220;46.204;5.220;2022-10-16T17:41:46;6.10;;;2.80;;
48873;SDS011;35220;46.204;5.220;2022-10-16T17:46:52;5.03;;;2.80;;
48873;SDS011;35220;46.204;5.220;2022-10-16T17:51:53;5.22;;;2.70;;
48873;SDS011;35220;46.204;5.220;2022-10-16T17:56:53;3.22;;;2.47;;
48873;SDS011;35220;46.204;5.220;2022-10-16T18:01:54;4.75;;;2.47;;
48873;SDS011;35220;46.204;5.220;2022-10-16T18:06:54;7.20;;;3.00;;
48873;SDS011;35220;46.204;5.220;2022-10-16T18:11:59;3.92;;;2.75;;
48873;SDS011;35220;46.204;5.220;2022-10-16T18:17:00;5.82;;;3.00;;
48873;SDS011;35220;46.204;5.220;2022-10-16T18:22:00;5.32;;;2.92;;
48873;SDS011;35220;46.204;5.220;2022-10-16T18:27:01;3.83;;;2.80;;
48873;SDS011;35220;46.204;5.220;2022-10-16T18:32:01;4.13;;;3.10;;
48873;SDS011;35220;46.204;5.220;2022-10-16T18:37:02;6.57;;;3.43;;
48873;SDS011;35220;46.204;5.220;2022-10-16T18:42:02;3.67;;;2.90;;
48873;SDS011;35220;46.204;5.220;2022-10-16T18:47:02;5.20;;;3.50;;
48873;SDS011;35220;46.204;5.220;2022-10-16T18:52:03;4.53;;;3.40;;
48873;SDS011;35220;46.204;5.220;2022-10-16T18:57:04;3.63;;;3.08;;
48873;SDS011;35220;46.204;5.220;2022-10-16T19:02:04;3.83;;;2.77;;
48873;SDS011;35220;46.204;5.220;2022-10-16T19:07:05;5.88;;;3.03;;
48873;SDS011;35220;46.204;5.220;2022-10-16T19:12:07;8.80;;;3.13;;
48873;SDS011;35220;46.204;5.220;2022-10-16T19:17:07;6.03;;;3.20;;
48873;SDS011;35220;46.204;5.220;2022-10-16T19:22:07;5.47;;;2.97;;
48873;SDS011;35220;46.204;5.220;2022-10-16T19:27:13;9.10;;;3.58;;
48873;SDS011;35220;46.204;5.220;2022-10-16T19:32:13;8.90;;;3.23;;
48873;SDS011;35220;46.204;5.220;2022-10-16T19:37:14;5.82;;;3.40;;
48873;SDS011;35220;46.204;5.220;2022-10-16T19:42:14;6.33;;;3.50;;
48873;SDS011;35220;46.204;5.220;2022-10-16T19:47:15;5.53;;;3.42;;
48873;SDS011;35220;46.204;5.220;2022-10-16T19:52:15;7.13;;;3.28;;
48873;SDS011;35220;46.204;5.220;2022-10-16T19:57:21;4.30;;;3.20;;
48873;SDS011;35220;46.204;5.220;2022-10-16T20:02:25;7.80;;;3.85;;
48873;SDS011;35220;46.204;5.220;2022-10-16T20:07:25;5.60;;;3.00;;
48873;SDS011;35220;46.204;5.220;2022-10-16T20:12:26;4.32;;;3.30;;
48873;SDS011;35220;46.204;5.220;2022-10-16T20:17:26;4.93;;;3.40;;
48873;SDS011;35220;46.204;5.220;2022-10-16T20:22:26;6.07;;;2.80;;
48873;SDS011;35220;46.204;5.220;2022-10-16T20:27:27;4.00;;;3.00;;
48873;SDS011;35220;46.204;5.220;2022-10-16T20:32:28;5.18;;;3.05;;
48873;SDS011;35220;46.204;5.220;2022-10-16T20:37:29;4.25;;;3.10;;
48873;SDS011;35220;46.204;5.220;2022-10-16T20:42:29;5.93;;;3.43;;
48873;SDS011;35220;46.204;5.220;2022-10-16T20:47:29;9.70;;;4.07;;
48873;SDS011;35220;46.204;5.220;2022-10-16T20:52:33;6.83;;;3.33;;
48873;SDS011;35220;46.204;5.220;2022-10-16T20:57:33;6.07;;;3.30;;
48873;SDS011;35220;46.204;5.220;2022-10-16T21:02:34;6.25;;;3.10;;
48873;SDS011;35220;46.204;5.220;2022-10-16T21:07:34;8.25;;;3.58;;
48873;SDS011;35220;46.204;5.220;2022-10-16T21:12:35;5.68;;;3.20;;
48873;SDS011;35220;46.204;5.220;2022-10-16T21:17:35;4.55;;;3.13;;
48873;SDS011;35220;46.204;5.220;2022-10-16T21:22:36;6.40;;;3.37;;
48873;SDS011;35220;46.204;5.220;2022-10-16T21:27:37;5.47;;;3.33;;
48873;SDS011;35220;46.204;5.220;2022-10-16T21:32:38;6.70;;;3.50;;
48873;SDS011;35220;46.204;5.220;2022-10-16T21:37:38;9.15;;;3.65;;
48873;SDS011;35220;46.204;5.220;2022-10-16T21:42:39;5.40;;;3.20;;
48873;SDS011;35220;46.204;5.220;2022-10-16T21:47:39;9.43;;;3.17;;
48873;SDS011;35220;46.204;5.220;2022-10-16T21:52:40;5.03;;;3.50;;
48873;SDS011;35220;46.204;5.220;2022-10-16T21:57:40;6.87;;;3.20;;
48873;SDS011;35220;46.204;5.220;2022-10-16T22:02:40;8.60;;;3.40;;
48873;SDS011;35220;46.204;5.220;2022-10-16T22:07:41;6.93;;;3.40;;
48873;SDS011;35220;46.204;5.220;2022-10-16T22:12:41;4.87;;;3.57;;
48873;SDS011;35220;46.204;5.220;2022-10-16T22:17:41;4.67;;;3.00;;
48873;SDS011;35220;46.204;5.220;2022-10-16T22:22:42;7.30;;;3.30;;
48873;SDS011;35220;46.204;5.220;2022-10-16T22:27:42;6.17;;;3.23;;
48873;SDS011;35220;46.204;5.220;2022-10-16T22:32:42;5.67;;;3.13;;
48873;SDS011;35220;46.204;5.220;2022-10-16T22:37:43;6.97;;;3.55;;
48873;SDS011;35220;46.204;5.220;2022-10-16T22:42:43;3.70;;;2.90;;
48873;SDS011;35220;46.204;5.220;2022-10-16T22:47:44;3.80;;;2.95;;
48873;SDS011;35220;46.204;5.220;2022-10-16T22:52:44;8.40;;;3.40;;
48873;SDS011;35220;46.204;5.220;2022-10-16T22:57:45;5.95;;;2.97;;
48873;SDS011;35220;46.204;5.220;2022-10-16T23:02:45;5.67;;;3.10;;
48873;SDS011;35220;46.204;5.220;2022-10-16T23:07:45;5.10;;;2.93;;
48873;SDS011;35220;46.204;5.220;2022-10-16T23:12:46;6.00;;;3.58;;
48873;SDS011;35220;46.204;5.220;2022-10-16T23:17:46;8.03;;;3.43;;
48873;SDS011;35220;46.204;5.220;2022-10-16T23:22:47;8.45;;;3.00;;
48873;SDS011;35220;46.204;5.220;2022-10-16T23:27:47;7.83;;;3.07;;
48873;SDS011;35220;46.204;5.220;2022-10-16T23:32:48;4.33;;;2.90;;
48873;SDS011;35220;46.204;5.220;2022-10-16T23:37:49;4.72;;;3.00;;
48873;SDS011;35220;46.204;5.220;2022-10-16T23:42:50;6.72;;;2.95;;
48873;SDS011;35220;46.204;5.220;2022-10-16T23:47:50;7.07;;;3.50;;
48873;SDS011;35220;46.204;5.220;2022-10-16T23:52:51;4.97;;;2.63;;
